Sweeney Granite Mountains, California Weather observations

Data are for 10 minute period ending at time listed.
 Day   Time   Solar   Ave.   Ave.  Ave.  Vector  Max.   Baro.   Total    
  of    of     Rad.   Air    Rel.  Wind   Wind   Wind  Press.  Precip.   
Year   Day            Temp.  Hum.  Speed  Dir.   Gust                    
2015   (PST)  Kw/m2    F      %     mph   deg.    mph    mb.     in.     
-------------------------------------------------------------------------
  27    3:10   0.00   43.2    99    7.3   106    10.4   873.8    0.00 
  27    3:20   0.00   43.2    99    7.2   105    10.2   873.8    0.00 
  27    3:30   0.00   43.4    99    6.3   100     8.6   873.8    0.00 
  27    3:40   0.00   43.3    99    6.7   104     9.5   873.8    0.01 
  27    3:50   0.00   43.3    99    5.9    99     9.0   873.8    0.00 
  27    4:00   0.00   43.3    99    5.6   102     8.0   873.9    0.00 
  27    4:10   0.00   43.5    99    4.8   102     7.3   874.0    0.00 
  27    4:20   0.00   43.5    99    6.6   106     9.5   874.0    0.00 
  27    4:30   0.00   43.3    99    6.9   106     9.8   874.0    0.01 
  27    4:40   0.00   43.4    99    5.4   108     7.8   874.0    0.00 
  27    4:50   0.00   43.4    99    5.9   102     8.1   874.1    0.00 
  27    5:00   0.00   43.4    99    6.0   103     8.3   874.2    0.01 
  27    5:10   0.00   43.4    99    5.5   104     7.5   874.3    0.00 
  27    5:20   0.00   43.4    99    5.6   103     7.2   874.3    0.01 
  27    5:30   0.00   43.6    99    5.3   102     7.6   874.3    0.00 
  27    5:40   0.00   43.6    99    6.3   104     8.7   874.4    0.00 
  27    5:50   0.00   43.6    99    6.0   102     8.1   874.5    0.00 
  27    6:00   0.00   43.7    99    5.8   106     8.0   874.7    0.00 
  27    6:10   0.00   43.7    99    4.8   105     6.4   874.8    0.00 
  27    6:20   0.00   43.7    99    4.8   110     6.6   875.0    0.00 
  27    6:30   0.00   43.7    99    4.5   108     6.6   875.1    0.00 
  27    6:40   0.00   43.7    99    4.4   113     6.5   875.1    0.00 
  27    6:50   0.00   43.7    99    5.5   105     7.3   875.2    0.00 
  27    7:00   0.00   43.8    99    5.2   101     6.6   875.4    0.00 
  27    7:10   0.00   43.9    99    4.3   102     5.7   875.5    0.00 
  27    7:20   0.00   44.0    99    3.2   103     4.5   875.6    0.00 
  27    7:30   0.01   44.1    99    2.9    97     4.8   875.7    0.00 
  27    7:40   0.01   44.3    99    2.3    98     3.9   875.8    0.00 
  27    7:50   0.02   44.4    99    2.5    92     3.9   875.9    0.00 
  27    8:00   0.03   44.6    99    2.1   116     5.3   875.9    0.00 
  27    8:10   0.05   44.9    99    0.5   239     2.0   875.9    0.00 
  27    8:20   0.07   44.9    99    1.0   216     2.2   876.0    0.00 
  27    8:30   0.29   46.0    99    1.7   208     3.8   875.9    0.00 
  27    8:40   0.36   46.8    99    1.7   259     3.2   875.8    0.00 
  27    8:50   0.29   47.8    98    2.0   234     6.1   875.8    0.00 
  27    9:00   0.30   48.1    98    1.5   173     5.8   875.8    0.00 
  27    9:10   0.21   47.0    98    3.0   167     7.5   875.8    0.00 
  27    9:20   0.39   47.2    99    5.0   133    10.1   875.9    0.00 
  27    9:30   0.38   47.6    98    6.6   122    10.8   875.9    0.00 
  27    9:40   0.46   47.5    99    6.1   130     9.7   875.9    0.00 
  27    9:50   0.33   47.5    98    5.4   126     9.9   876.0    0.00 
  27   10:00   0.21   47.1    98    4.4   124     8.1   876.1    0.00 
  27   10:10   0.24   47.3    98    3.9   127     6.9   876.0    0.00 
  27   10:20   0.24   47.7    97    4.7   119     7.2   876.1    0.00 
  27   10:30   0.12   47.2    97    6.1   109     8.7   876.1    0.00 
  27   10:40   0.23   47.3    96    6.4    88     8.4   876.0    0.00 
  27   10:50   0.64   48.9    92    6.0   100     8.2   875.9    0.00 
  27   11:00   0.22   48.2    90    5.9   101     9.1   875.8    0.00 
  27   11:10   0.24   47.7    91    5.7   104     9.1   875.7    0.00 
  27   11:20   0.19   47.8    90    4.3    94     8.0   875.6    0.00 
  27   11:30   0.28   48.0    90    4.8    95     8.8   875.5    0.00 
  27   11:40   0.72   50.1    86    4.3   118     7.1   875.3    0.00 
  27   11:50   0.65   51.4    80    4.9   120     9.4   875.1    0.00 
  27   12:00   0.44   49.9    84    5.9   124    10.3   875.1    0.00 
  27   12:10   0.24   49.2    85    5.4   129    10.7   875.1    0.00 
  27   12:20   0.34   49.6    82    4.1   120     7.4   875.1    0.00 
  27   12:30   0.31   49.7    82    3.1   119     7.0   874.9    0.00 
  27   12:40   0.24   49.7    85    5.5   103     8.0   874.7    0.00 
  27   12:50   0.40   50.4    81    3.1    96     6.6   874.6    0.00 
  27   13:00   0.36   51.4    77    4.2   120    10.4   874.5    0.00 
  27   13:10   0.24   50.7    79    4.4   121     7.2   874.4    0.00 
  27   13:20   0.21   50.0    82    3.6   136     6.5   874.3    0.00 
  27   13:30   0.63   52.1    77    3.4   121    11.6   874.3    0.00 
  27   13:40   0.44   52.3    72    3.2   138     9.2   874.3    0.00 
  27   13:50   0.41   52.9    71    3.3   137    10.0   874.3    0.00 
  27   14:00   0.40   52.8    70    3.6   102     8.5   874.4    0.00 
  27   14:10   0.47   52.4    75    5.2   116     9.1   874.5    0.00 
  27   14:20   0.39   52.9    74    3.1   125     7.2   874.4    0.00 
  27   14:30   0.25   52.5    74    2.4   183     7.7   874.4    0.00 
  27   14:40   0.18   52.9    74    1.5   233     4.2   874.4    0.00 
  27   14:50   0.48   54.8    70    1.7   200     5.6   874.4    0.00 
  27   15:00   0.42   53.9    73    4.4   212     7.9   874.3    0.00 
  27   15:10   0.42   53.9    72    3.4   214     6.5   874.3    0.00 
  27   15:20   0.37   54.1    70    2.8   226     5.4   874.3    0.00 
  27   15:30   0.27   54.0    70    2.3   216     4.4   874.3    0.00 
  27   15:40   0.14   52.7    72    1.6   165     5.0   874.2    0.00 
  27   15:50   0.10   52.0    74    1.3   164     4.4   874.2    0.00 
  27   16:00   0.07   51.4    76    1.9   170     5.5   874.2    0.00 
  27   16:10   0.08   51.0    79    2.1   203     5.3   874.2    0.00 
  27   16:20   0.09   51.1    80    2.5   206     5.6   874.3    0.00 
  27   16:30   0.07   50.5    83    3.7   216     5.9   874.3    0.00 
  27   16:40   0.07   49.9    84    2.8   218     4.5   874.3    0.00 
  27   16:50   0.03   49.7    86    2.3   212     5.3   874.4    0.00 
  27   17:00   0.02   49.1    88    2.8   223     5.6   874.4    0.00 
  27   17:10   0.00   48.6    88    2.4   219     3.9   874.5    0.00 
  27   17:20   0.00   48.3    87    1.8   225     3.5   874.6    0.00 
  27   17:30   0.00   48.3    88    1.9   204     3.6   874.6    0.00 
  27   17:40   0.00   47.5    90    1.7   258     2.2   874.6    0.00 
  27   17:50   0.00   46.3    91    2.3   292     3.1   874.9    0.00 
  27   18:00   0.00   45.5    93    2.5   283     3.1   875.0    0.00 
  27   18:10   0.00   45.7    93    2.4   287     2.6   875.0    0.00 
  27   18:20   0.00   45.5    94    2.3   272     2.7   875.1    0.00 
  27   18:30   0.00   44.7    93    1.6   265     2.2   875.1    0.00 
  27   18:40   0.00   43.2    93    2.7   282     3.1   875.1    0.00 
  27   18:50   0.00   43.0    93    3.0   278     3.7   875.1    0.00 
  27   19:00   0.00   43.9    90    2.4   277     3.3   875.0    0.00 
  27   19:10   0.00   44.1    87    2.8   276     3.5   875.0    0.00 
  27   19:20   0.00   43.3    89    3.5   281     4.0   875.2    0.00 
  27   19:30   0.00   44.5    85    3.8   277     4.6   875.2    0.00 
  27   19:40   0.00   44.3    85    3.7   274     4.5   875.1    0.00 
  27   19:50   0.00   43.5    86    3.0   273     4.1   875.2    0.00 
  27   20:00   0.00   43.0    87    2.9   276     3.8   875.1    0.00 
  27   20:10   0.00   44.0    84    1.8   287     3.5   875.0    0.00 
  27   20:20   0.00   42.3    87    3.5   273     5.6   875.0    0.00 
  27   20:30   0.00   43.4    86    3.1   263     5.2   875.1    0.00 
  27   20:40   0.00   43.1    87    3.1   272     4.4   875.2    0.00 
  27   20:50   0.00   44.4    82    3.4   286     4.9   875.3    0.00 
  27   21:00   0.00   44.0    82    3.4   272     4.9   875.4    0.00 
  27   21:10   0.00   43.9    80    2.2   279     3.4   875.5    0.00 
  27   21:20   0.00   44.3    80    1.3     0     2.7   875.5    0.00 
  27   21:30   0.00   42.3    83    1.3   275     2.6   875.5    0.00 
  27   21:40   0.00   41.4    86    3.3   289     4.1   875.7    0.00 
  27   21:50   0.00   42.0    83    3.2   284     3.9   875.8    0.00 
  27   22:00   0.00   41.5    87    4.0   284     4.7   875.7    0.00 
  27   22:10   0.00   41.1    87    3.1   280     4.6   875.6    0.00 
  27   22:20   0.00   41.8    88    2.3   312     4.7   875.4    0.00 
  27   22:30   0.00   43.7    83    1.8   341     5.2   875.4    0.00 
  27   22:40   0.00   46.2    75    1.7    97     3.7   875.4    0.00 
  27   22:50   0.00   45.8    78    0.8   126     3.1   875.4    0.00 
  27   23:00   0.00   45.3    81    4.3   106     7.0   875.5    0.00 
  27   23:10   0.00   44.9    84    2.8    97     4.5   875.5    0.00 
  27   23:20   0.00   45.1    82    3.2    94     5.0   875.4    0.00 
  27   23:30   0.00   43.9    83    1.3    82     3.7   875.4    0.00 
  27   23:40   0.00   42.3    86    0.8   232     3.6   875.4    0.00 
  27   23:50   0.00   41.7    89    2.8   292     3.9   875.4    0.00 
  28    0:00   0.00   42.0    86    1.8   298     2.9   875.3    0.00 
  28    0:10   0.00   43.7    78    2.2   243     5.3   875.1    0.00 
  28    0:20   0.00   45.0    74    1.7   233     4.2   875.0    0.00 
  28    0:30   0.00   45.9    69    6.0   308     9.8   874.9    0.00 
  28    0:40   0.00   47.0    66    6.8   303    10.0   875.1    0.00 
  28    0:50   0.00   47.4    65    5.1   247     8.0   875.3    0.00 
  28    1:00   0.00   47.8    65    5.1   238     9.6   875.3    0.00 
  28    1:10   0.00   47.4    66    4.1   263     6.8   875.3    0.00 
  28    1:20   0.00   46.6    69    3.4   290     5.0   875.3    0.00 
  28    1:30   0.00   46.1    70    4.4   294     6.7   875.2    0.00 
  28    1:40   0.00   45.8    71    1.1   312     4.8   875.2    0.00 
  28    1:50   0.00   46.7    69    1.2   266     6.9   875.3    0.00 
  28    2:00   0.00   46.5    70    6.7   311     9.6   875.4    0.00 
  28    2:10   0.00   47.0    70    7.6   308     9.7   875.5    0.00 
  28    2:20   0.00   46.8    70    6.4   304     9.7   875.5    0.00 
  28    2:30   0.00   46.7    70    6.2   293     8.0   875.6    0.00 
  28    2:40   0.00   46.8    69    4.7   298     7.1   875.6    0.00 
  28    2:50   0.00   47.0    68    4.3   292     6.5   875.4    0.00 
  28    3:00   0.00   46.5    69    4.7   292     6.9   875.3    0.00 

Return to Sweeney Granite Mountains graphs page.


Western Regional Climate Center,wrcc@dri.edu